sensor_id;sensor_type;location;lat;lon;timestamp;P1;durP1;ratioP1;P2;durP2;ratioP2
49728;SDS011;35617;50.714;7.114;2022-11-24T00:01:43;13.37;;;3.00;;
49728;SDS011;35617;50.714;7.114;2022-11-24T00:04:09;15.50;;;3.10;;
49728;SDS011;35617;50.714;7.114;2022-11-24T00:06:35;19.60;;;3.20;;
49728;SDS011;35617;50.714;7.114;2022-11-24T00:09:02;15.17;;;3.07;;
49728;SDS011;35617;50.714;7.114;2022-11-24T00:11:30;16.00;;;3.00;;
49728;SDS011;35617;50.714;7.114;2022-11-24T00:14:00;15.97;;;3.53;;
49728;SDS011;35617;50.714;7.114;2022-11-24T00:16:27;15.17;;;3.00;;
49728;SDS011;35617;50.714;7.114;2022-11-24T00:18:55;17.43;;;3.00;;
49728;SDS011;35617;50.714;7.114;2022-11-24T00:21:22;20.33;;;3.10;;
49728;SDS011;35617;50.714;7.114;2022-11-24T00:23:50;17.57;;;3.33;;
49728;SDS011;35617;50.714;7.114;2022-11-24T00:26:16;19.03;;;3.43;;
49728;SDS011;35617;50.714;7.114;2022-11-24T00:28:44;16.90;;;3.70;;
49728;SDS011;35617;50.714;7.114;2022-11-24T00:33:41;16.27;;;3.47;;
49728;SDS011;35617;50.714;7.114;2022-11-24T00:36:07;15.87;;;3.10;;
49728;SDS011;35617;50.714;7.114;2022-11-24T00:38:33;18.20;;;3.67;;
49728;SDS011;35617;50.714;7.114;2022-11-24T00:40:58;16.87;;;3.10;;
49728;SDS011;35617;50.714;7.114;2022-11-24T00:43:24;14.50;;;3.80;;
49728;SDS011;35617;50.714;7.114;2022-11-24T00:45:50;15.33;;;3.27;;
49728;SDS011;35617;50.714;7.114;2022-11-24T00:48:15;16.97;;;3.03;;
49728;SDS011;35617;50.714;7.114;2022-11-24T00:50:41;20.27;;;3.57;;
49728;SDS011;35617;50.714;7.114;2022-11-24T00:53:07;17.27;;;3.30;;
49728;SDS011;35617;50.714;7.114;2022-11-24T00:55:32;16.80;;;3.40;;
49728;SDS011;35617;50.714;7.114;2022-11-24T00:57:58;14.33;;;2.97;;
49728;SDS011;35617;50.714;7.114;2022-11-24T01:00:24;18.53;;;3.57;;
49728;SDS011;35617;50.714;7.114;2022-11-24T01:02:51;21.97;;;3.77;;
49728;SDS011;35617;50.714;7.114;2022-11-24T01:05:17;15.63;;;3.30;;
49728;SDS011;35617;50.714;7.114;2022-11-24T01:07:43;18.67;;;3.67;;
49728;SDS011;35617;50.714;7.114;2022-11-24T01:10:08;13.57;;;3.00;;
49728;SDS011;35617;50.714;7.114;2022-11-24T01:12:34;16.63;;;3.93;;
49728;SDS011;35617;50.714;7.114;2022-11-24T01:14:59;15.10;;;3.10;;
49728;SDS011;35617;50.714;7.114;2022-11-24T01:17:25;16.00;;;3.33;;
49728;SDS011;35617;50.714;7.114;2022-11-24T01:19:51;19.77;;;3.43;;
49728;SDS011;35617;50.714;7.114;2022-11-24T01:22:16;14.97;;;3.23;;
49728;SDS011;35617;50.714;7.114;2022-11-24T01:24:42;20.90;;;4.63;;
49728;SDS011;35617;50.714;7.114;2022-11-24T01:27:08;17.90;;;4.03;;
49728;SDS011;35617;50.714;7.114;2022-11-24T01:29:34;13.73;;;2.97;;
49728;SDS011;35617;50.714;7.114;2022-11-24T01:31:59;17.07;;;2.97;;
49728;SDS011;35617;50.714;7.114;2022-11-24T01:34:25;15.00;;;3.03;;
49728;SDS011;35617;50.714;7.114;2022-11-24T01:36:51;15.17;;;3.20;;
49728;SDS011;35617;50.714;7.114;2022-11-24T01:39:16;12.83;;;2.87;;
49728;SDS011;35617;50.714;7.114;2022-11-24T01:41:42;18.23;;;3.50;;
49728;SDS011;35617;50.714;7.114;2022-11-24T01:46:52;19.03;;;3.13;;
49728;SDS011;35617;50.714;7.114;2022-11-24T01:49:30;14.57;;;2.90;;
49728;SDS011;35617;50.714;7.114;2022-11-24T01:52:51;15.30;;;3.40;;
49728;SDS011;35617;50.714;7.114;2022-11-24T01:55:03;12.80;;;3.20;;
49728;SDS011;35617;50.714;7.114;2022-11-24T01:57:34;20.43;;;3.70;;
49728;SDS011;35617;50.714;7.114;2022-11-24T02:00:07;21.13;;;3.43;;
49728;SDS011;35617;50.714;7.114;2022-11-24T02:02:35;20.57;;;3.73;;
49728;SDS011;35617;50.714;7.114;2022-11-24T02:05:02;16.00;;;3.50;;
49728;SDS011;35617;50.714;7.114;2022-11-24T02:07:33;15.83;;;3.47;;
49728;SDS011;35617;50.714;7.114;2022-11-24T02:10:02;15.10;;;3.90;;
49728;SDS011;35617;50.714;7.114;2022-11-24T02:12:35;14.87;;;3.43;;
49728;SDS011;35617;50.714;7.114;2022-11-24T02:15:03;21.00;;;3.87;;
49728;SDS011;35617;50.714;7.114;2022-11-24T02:17:29;18.00;;;3.60;;
49728;SDS011;35617;50.714;7.114;2022-11-24T02:19:56;16.43;;;3.30;;
49728;SDS011;35617;50.714;7.114;2022-11-24T02:25:28;19.63;;;3.87;;
49728;SDS011;35617;50.714;7.114;2022-11-24T02:28:14;21.67;;;4.00;;
49728;SDS011;35617;50.714;7.114;2022-11-24T02:30:43;14.03;;;3.03;;
49728;SDS011;35617;50.714;7.114;2022-11-24T02:33:09;18.37;;;3.20;;
49728;SDS011;35617;50.714;7.114;2022-11-24T02:35:36;16.90;;;3.73;;
49728;SDS011;35617;50.714;7.114;2022-11-24T02:38:02;22.87;;;3.60;;
49728;SDS011;35617;50.714;7.114;2022-11-24T02:40:28;18.60;;;3.80;;
49728;SDS011;35617;50.714;7.114;2022-11-24T02:43:14;18.57;;;3.33;;
49728;SDS011;35617;50.714;7.114;2022-11-24T02:45:44;19.57;;;4.03;;
49728;SDS011;35617;50.714;7.114;2022-11-24T02:48:10;16.53;;;3.50;;
49728;SDS011;35617;50.714;7.114;2022-11-24T02:50:37;13.97;;;3.90;;
49728;SDS011;35617;50.714;7.114;2022-11-24T02:53:03;20.57;;;3.87;;
49728;SDS011;35617;50.714;7.114;2022-11-24T02:55:28;20.63;;;3.40;;
49728;SDS011;35617;50.714;7.114;2022-11-24T02:57:54;22.40;;;3.97;;
49728;SDS011;35617;50.714;7.114;2022-11-24T03:00:20;18.57;;;3.20;;
49728;SDS011;35617;50.714;7.114;2022-11-24T03:02:46;15.23;;;3.07;;
49728;SDS011;35617;50.714;7.114;2022-11-24T03:05:11;17.40;;;3.23;;
49728;SDS011;35617;50.714;7.114;2022-11-24T03:07:37;15.50;;;4.10;;
49728;SDS011;35617;50.714;7.114;2022-11-24T03:10:03;14.00;;;3.13;;
49728;SDS011;35617;50.714;7.114;2022-11-24T03:12:29;21.93;;;3.10;;
49728;SDS011;35617;50.714;7.114;2022-11-24T03:14:54;20.27;;;3.20;;
49728;SDS011;35617;50.714;7.114;2022-11-24T03:17:20;17.57;;;3.30;;
49728;SDS011;35617;50.714;7.114;2022-11-24T03:19:46;20.90;;;3.00;;
49728;SDS011;35617;50.714;7.114;2022-11-24T03:22:12;14.67;;;3.60;;
49728;SDS011;35617;50.714;7.114;2022-11-24T03:24:38;19.87;;;3.70;;
49728;SDS011;35617;50.714;7.114;2022-11-24T03:27:04;19.63;;;3.40;;
49728;SDS011;35617;50.714;7.114;2022-11-24T03:29:30;14.87;;;2.90;;
49728;SDS011;35617;50.714;7.114;2022-11-24T03:31:55;18.87;;;3.00;;
49728;SDS011;35617;50.714;7.114;2022-11-24T03:34:22;16.67;;;3.60;;
49728;SDS011;35617;50.714;7.114;2022-11-24T03:36:48;18.93;;;3.63;;
49728;SDS011;35617;50.714;7.114;2022-11-24T03:39:14;14.77;;;2.77;;
49728;SDS011;35617;50.714;7.114;2022-11-24T03:41:39;15.97;;;3.00;;
49728;SDS011;35617;50.714;7.114;2022-11-24T03:44:08;22.13;;;3.60;;
49728;SDS011;35617;50.714;7.114;2022-11-24T03:46:33;18.53;;;3.10;;
49728;SDS011;35617;50.714;7.114;2022-11-24T03:48:59;18.03;;;3.40;;
49728;SDS011;35617;50.714;7.114;2022-11-24T03:51:25;23.20;;;3.57;;
49728;SDS011;35617;50.714;7.114;2022-11-24T03:53:50;19.03;;;3.47;;
49728;SDS011;35617;50.714;7.114;2022-11-24T03:56:16;19.13;;;4.40;;
49728;SDS011;35617;50.714;7.114;2022-11-24T03:58:41;17.93;;;3.27;;
49728;SDS011;35617;50.714;7.114;2022-11-24T04:01:07;23.00;;;4.20;;
49728;SDS011;35617;50.714;7.114;2022-11-24T04:03:33;17.70;;;3.20;;
49728;SDS011;35617;50.714;7.114;2022-11-24T04:05:58;21.63;;;3.20;;
49728;SDS011;35617;50.714;7.114;2022-11-24T04:08:24;20.20;;;3.97;;
49728;SDS011;35617;50.714;7.114;2022-11-24T04:10:51;22.87;;;3.83;;
49728;SDS011;35617;50.714;7.114;2022-11-24T04:13:18;13.57;;;2.87;;
49728;SDS011;35617;50.714;7.114;2022-11-24T04:15:45;17.90;;;3.10;;
49728;SDS011;35617;50.714;7.114;2022-11-24T04:18:12;19.83;;;3.03;;
49728;SDS011;35617;50.714;7.114;2022-11-24T04:20:38;19.70;;;3.30;;
49728;SDS011;35617;50.714;7.114;2022-11-24T04:23:04;19.77;;;3.80;;
49728;SDS011;35617;50.714;7.114;2022-11-24T04:25:30;20.67;;;3.50;;
49728;SDS011;35617;50.714;7.114;2022-11-24T04:27:56;18.53;;;4.17;;
49728;SDS011;35617;50.714;7.114;2022-11-24T04:30:22;23.53;;;3.83;;
49728;SDS011;35617;50.714;7.114;2022-11-24T04:32:49;18.50;;;3.50;;
49728;SDS011;35617;50.714;7.114;2022-11-24T04:35:15;15.47;;;3.00;;
49728;SDS011;35617;50.714;7.114;2022-11-24T04:37:41;23.23;;;3.87;;
49728;SDS011;35617;50.714;7.114;2022-11-24T04:40:07;18.13;;;3.13;;
49728;SDS011;35617;50.714;7.114;2022-11-24T04:42:33;18.07;;;3.60;;
49728;SDS011;35617;50.714;7.114;2022-11-24T04:44:59;16.57;;;3.37;;
49728;SDS011;35617;50.714;7.114;2022-11-24T04:47:25;22.10;;;3.63;;
49728;SDS011;35617;50.714;7.114;2022-11-24T04:49:51;18.27;;;3.30;;
49728;SDS011;35617;50.714;7.114;2022-11-24T04:52:18;17.50;;;3.97;;
49728;SDS011;35617;50.714;7.114;2022-11-24T04:54:45;18.27;;;3.60;;
49728;SDS011;35617;50.714;7.114;2022-11-24T04:57:17;18.43;;;3.07;;
49728;SDS011;35617;50.714;7.114;2022-11-24T04:59:44;14.97;;;3.10;;
49728;SDS011;35617;50.714;7.114;2022-11-24T05:02:10;18.10;;;3.27;;
49728;SDS011;35617;50.714;7.114;2022-11-24T05:04:37;15.30;;;2.77;;
49728;SDS011;35617;50.714;7.114;2022-11-24T05:07:02;14.13;;;2.90;;
49728;SDS011;35617;50.714;7.114;2022-11-24T05:09:28;20.80;;;3.57;;
49728;SDS011;35617;50.714;7.114;2022-11-24T05:11:54;16.50;;;3.07;;
49728;SDS011;35617;50.714;7.114;2022-11-24T05:14:20;14.50;;;3.10;;
49728;SDS011;35617;50.714;7.114;2022-11-24T05:16:45;15.40;;;3.13;;
49728;SDS011;35617;50.714;7.114;2022-11-24T05:19:11;17.13;;;3.13;;
49728;SDS011;35617;50.714;7.114;2022-11-24T05:21:37;21.30;;;3.60;;
49728;SDS011;35617;50.714;7.114;2022-11-24T05:24:03;14.03;;;2.93;;
49728;SDS011;35617;50.714;7.114;2022-11-24T05:26:28;13.87;;;3.43;;
49728;SDS011;35617;50.714;7.114;2022-11-24T05:28:54;16.80;;;3.47;;
49728;SDS011;35617;50.714;7.114;2022-11-24T05:31:19;20.23;;;3.97;;
49728;SDS011;35617;50.714;7.114;2022-11-24T05:33:45;15.07;;;3.30;;
49728;SDS011;35617;50.714;7.114;2022-11-24T05:36:11;16.27;;;3.43;;
49728;SDS011;35617;50.714;7.114;2022-11-24T05:38:56;17.60;;;3.20;;
49728;SDS011;35617;50.714;7.114;2022-11-24T05:41:22;17.77;;;3.67;;
49728;SDS011;35617;50.714;7.114;2022-11-24T05:43:47;10.90;;;2.70;;
49728;SDS011;35617;50.714;7.114;2022-11-24T05:46:13;17.17;;;3.73;;
49728;SDS011;35617;50.714;7.114;2022-11-24T05:48:38;14.40;;;3.90;;
49728;SDS011;35617;50.714;7.114;2022-11-24T05:51:04;11.83;;;2.63;;
49728;SDS011;35617;50.714;7.114;2022-11-24T05:53:29;13.10;;;2.73;;
49728;SDS011;35617;50.714;7.114;2022-11-24T05:55:55;10.70;;;2.77;;
49728;SDS011;35617;50.714;7.114;2022-11-24T05:58:20;20.60;;;3.60;;
49728;SDS011;35617;50.714;7.114;2022-11-24T06:00:46;22.07;;;3.53;;
49728;SDS011;35617;50.714;7.114;2022-11-24T06:03:11;14.40;;;3.07;;
49728;SDS011;35617;50.714;7.114;2022-11-24T06:05:37;18.20;;;3.57;;
49728;SDS011;35617;50.714;7.114;2022-11-24T06:08:03;17.70;;;3.70;;
49728;SDS011;35617;50.714;7.114;2022-11-24T06:10:29;13.07;;;2.80;;
49728;SDS011;35617;50.714;7.114;2022-11-24T06:12:54;14.87;;;3.03;;
49728;SDS011;35617;50.714;7.114;2022-11-24T06:15:20;14.77;;;3.10;;
49728;SDS011;35617;50.714;7.114;2022-11-24T06:17:55;13.20;;;2.27;;
49728;SDS011;35617;50.714;7.114;2022-11-24T06:20:21;9.87;;;2.50;;
49728;SDS011;35617;50.714;7.114;2022-11-24T06:22:48;8.23;;;1.97;;
49728;SDS011;35617;50.714;7.114;2022-11-24T06:25:13;10.60;;;2.60;;
49728;SDS011;35617;50.714;7.114;2022-11-24T06:27:40;12.53;;;2.17;;
49728;SDS011;35617;50.714;7.114;2022-11-24T06:30:05;9.87;;;2.13;;
49728;SDS011;35617;50.714;7.114;2022-11-24T06:32:32;13.13;;;2.33;;
49728;SDS011;35617;50.714;7.114;2022-11-24T06:34:57;10.53;;;2.27;;
49728;SDS011;35617;50.714;7.114;2022-11-24T06:37:23;16.60;;;2.20;;
49728;SDS011;35617;50.714;7.114;2022-11-24T06:39:48;10.33;;;1.93;;
49728;SDS011;35617;50.714;7.114;2022-11-24T06:42:14;10.07;;;2.43;;
49728;SDS011;35617;50.714;7.114;2022-11-24T06:44:43;7.20;;;1.70;;
49728;SDS011;35617;50.714;7.114;2022-11-24T06:47:12;10.63;;;2.30;;
49728;SDS011;35617;50.714;7.114;2022-11-24T06:49:38;7.37;;;1.70;;
49728;SDS011;35617;50.714;7.114;2022-11-24T06:52:04;11.27;;;2.10;;
49728;SDS011;35617;50.714;7.114;2022-11-24T06:54:30;8.23;;;2.07;;
49728;SDS011;35617;50.714;7.114;2022-11-24T06:56:56;9.73;;;1.97;;
49728;SDS011;35617;50.714;7.114;2022-11-24T06:59:22;8.60;;;2.33;;
49728;SDS011;35617;50.714;7.114;2022-11-24T07:01:48;9.37;;;2.13;;
49728;SDS011;35617;50.714;7.114;2022-11-24T07:04:14;9.00;;;2.43;;
49728;SDS011;35617;50.714;7.114;2022-11-24T07:06:40;12.13;;;2.80;;
49728;SDS011;35617;50.714;7.114;2022-11-24T07:09:07;24.87;;;4.90;;
49728;SDS011;35617;50.714;7.114;2022-11-24T07:11:33;14.53;;;2.90;;
49728;SDS011;35617;50.714;7.114;2022-11-24T07:13:59;18.50;;;3.40;;
49728;SDS011;35617;50.714;7.114;2022-11-24T07:16:25;13.43;;;3.17;;
49728;SDS011;35617;50.714;7.114;2022-11-24T07:18:52;14.77;;;3.60;;
49728;SDS011;35617;50.714;7.114;2022-11-24T07:21:19;14.00;;;3.73;;
49728;SDS011;35617;50.714;7.114;2022-11-24T07:23:52;13.57;;;3.70;;
49728;SDS011;35617;50.714;7.114;2022-11-24T07:26:19;13.63;;;3.42;;
49728;SDS011;35617;50.714;7.114;2022-11-24T07:28:46;14.60;;;3.23;;
49728;SDS011;35617;50.714;7.114;2022-11-24T07:31:15;13.60;;;4.03;;
49728;SDS011;35617;50.714;7.114;2022-11-24T07:33:47;14.63;;;4.00;;
49728;SDS011;35617;50.714;7.114;2022-11-24T07:36:13;11.37;;;3.80;;
49728;SDS011;35617;50.714;7.114;2022-11-24T07:38:39;14.10;;;4.27;;
49728;SDS011;35617;50.714;7.114;2022-11-24T07:41:06;11.17;;;3.17;;
49728;SDS011;35617;50.714;7.114;2022-11-24T07:43:34;13.37;;;2.67;;
49728;SDS011;35617;50.714;7.114;2022-11-24T07:46:01;14.20;;;2.60;;
49728;SDS011;35617;50.714;7.114;2022-11-24T07:48:27;12.17;;;2.67;;
49728;SDS011;35617;50.714;7.114;2022-11-24T07:50:53;7.90;;;2.43;;
49728;SDS011;35617;50.714;7.114;2022-11-24T07:53:18;10.70;;;2.30;;
49728;SDS011;35617;50.714;7.114;2022-11-24T07:55:51;9.93;;;2.90;;
49728;SDS011;35617;50.714;7.114;2022-11-24T07:58:20;8.87;;;2.17;;
49728;SDS011;35617;50.714;7.114;2022-11-24T08:00:46;9.43;;;2.57;;
49728;SDS011;35617;50.714;7.114;2022-11-24T08:03:12;9.27;;;2.10;;
49728;SDS011;35617;50.714;7.114;2022-11-24T08:05:37;14.33;;;2.50;;
49728;SDS011;35617;50.714;7.114;2022-11-24T08:08:03;12.77;;;2.17;;
49728;SDS011;35617;50.714;7.114;2022-11-24T08:10:29;13.10;;;2.30;;
49728;SDS011;35617;50.714;7.114;2022-11-24T08:12:58;9.77;;;1.73;;
49728;SDS011;35617;50.714;7.114;2022-11-24T08:15:24;10.30;;;1.87;;
49728;SDS011;35617;50.714;7.114;2022-11-24T08:17:50;8.03;;;1.93;;
49728;SDS011;35617;50.714;7.114;2022-11-24T08:20:15;8.27;;;1.60;;
49728;SDS011;35617;50.714;7.114;2022-11-24T08:22:41;8.97;;;1.77;;
49728;SDS011;35617;50.714;7.114;2022-11-24T08:25:07;5.67;;;1.60;;
49728;SDS011;35617;50.714;7.114;2022-11-24T08:27:33;7.57;;;1.43;;
49728;SDS011;35617;50.714;7.114;2022-11-24T08:29:58;7.80;;;1.73;;
49728;SDS011;35617;50.714;7.114;2022-11-24T08:32:24;7.90;;;1.40;;
49728;SDS011;35617;50.714;7.114;2022-11-24T08:34:50;5.63;;;1.17;;
49728;SDS011;35617;50.714;7.114;2022-11-24T08:37:16;7.60;;;1.60;;
49728;SDS011;35617;50.714;7.114;2022-11-24T08:39:41;9.97;;;2.00;;
49728;SDS011;35617;50.714;7.114;2022-11-24T08:42:07;7.27;;;1.67;;
49728;SDS011;35617;50.714;7.114;2022-11-24T08:44:32;5.93;;;1.40;;
49728;SDS011;35617;50.714;7.114;2022-11-24T08:46:58;7.23;;;1.53;;
49728;SDS011;35617;50.714;7.114;2022-11-24T08:49:23;11.07;;;1.90;;
49728;SDS011;35617;50.714;7.114;2022-11-24T08:51:49;8.43;;;1.60;;
49728;SDS011;35617;50.714;7.114;2022-11-24T08:54:15;6.07;;;1.37;;
49728;SDS011;35617;50.714;7.114;2022-11-24T08:56:42;7.53;;;1.60;;
49728;SDS011;35617;50.714;7.114;2022-11-24T08:59:10;5.60;;;1.30;;
49728;SDS011;35617;50.714;7.114;2022-11-24T09:01:37;6.60;;;1.30;;
49728;SDS011;35617;50.714;7.114;2022-11-24T09:04:02;8.07;;;1.67;;
49728;SDS011;35617;50.714;7.114;2022-11-24T09:06:28;8.07;;;1.60;;
49728;SDS011;35617;50.714;7.114;2022-11-24T09:08:56;6.10;;;1.33;;
49728;SDS011;35617;50.714;7.114;2022-11-24T09:11:23;8.67;;;1.67;;
49728;SDS011;35617;50.714;7.114;2022-11-24T09:13:50;6.37;;;1.47;;
49728;SDS011;35617;50.714;7.114;2022-11-24T09:16:20;5.78;;;1.38;;
49728;SDS011;35617;50.714;7.114;2022-11-24T09:18:52;7.35;;;1.50;;
49728;SDS011;35617;50.714;7.114;2022-11-24T09:21:19;7.00;;;1.45;;
49728;SDS011;35617;50.714;7.114;2022-11-24T09:23:46;7.90;;;1.50;;
49728;SDS011;35617;50.714;7.114;2022-11-24T09:26:14;7.10;;;1.50;;
49728;SDS011;35617;50.714;7.114;2022-11-24T09:28:46;8.35;;;2.38;;
49728;SDS011;35617;50.714;7.114;2022-11-24T09:31:13;9.50;;;1.80;;
49728;SDS011;35617;50.714;7.114;2022-11-24T09:33:41;7.00;;;1.75;;
49728;SDS011;35617;50.714;7.114;2022-11-24T09:36:07;7.60;;;1.60;;
49728;SDS011;35617;50.714;7.114;2022-11-24T09:38:33;6.68;;;1.48;;
49728;SDS011;35617;50.714;7.114;2022-11-24T09:48:47;9.80;;;1.73;;
49728;SDS011;35617;50.714;7.114;2022-11-24T09:51:18;9.85;;;1.60;;
49728;SDS011;35617;50.714;7.114;2022-11-24T09:56:19;9.65;;;1.65;;
49728;SDS011;35617;50.714;7.114;2022-11-24T10:01:35;10.10;;;1.92;;
49728;SDS011;35617;50.714;7.114;2022-11-24T10:04:10;9.50;;;1.63;;
49728;SDS011;35617;50.714;7.114;2022-11-24T10:25:02;8.02;;;1.80;;
49728;SDS011;35617;50.714;7.114;2022-11-24T10:27:39;12.93;;;2.20;;
49728;SDS011;35617;50.714;7.114;2022-11-24T10:30:11;10.18;;;2.17;;
49728;SDS011;35617;50.714;7.114;2022-11-24T10:32:42;7.25;;;1.48;;
49728;SDS011;35617;50.714;7.114;2022-11-24T10:35:16;7.88;;;1.83;;
49728;SDS011;35617;50.714;7.114;2022-11-24T10:43:43;11.60;;;1.90;;
49728;SDS011;35617;50.714;7.114;2022-11-24T10:46:10;9.73;;;1.88;;
49728;SDS011;35617;50.714;7.114;2022-11-24T10:48:42;10.35;;;1.70;;
49728;SDS011;35617;50.714;7.114;2022-11-24T10:54:23;11.65;;;1.63;;
49728;SDS011;35617;50.714;7.114;2022-11-24T10:56:50;10.43;;;1.77;;
49728;SDS011;35617;50.714;7.114;2022-11-24T11:01:49;11.77;;;1.95;;
49728;SDS011;35617;50.714;7.114;2022-11-24T11:04:17;9.82;;;2.25;;
49728;SDS011;35617;50.714;7.114;2022-11-24T11:06:51;13.00;;;2.20;;
49728;SDS011;35617;50.714;7.114;2022-11-24T11:09:30;10.70;;;1.67;;
49728;SDS011;35617;50.714;7.114;2022-11-24T11:11:56;12.82;;;2.10;;
49728;SDS011;35617;50.714;7.114;2022-11-24T11:14:34;10.13;;;2.03;;
49728;SDS011;35617;50.714;7.114;2022-11-24T11:17:00;12.90;;;2.25;;
49728;SDS011;35617;50.714;7.114;2022-11-24T11:24:28;11.35;;;1.83;;
49728;SDS011;35617;50.714;7.114;2022-11-24T11:27:01;11.68;;;2.30;;
49728;SDS011;35617;50.714;7.114;2022-11-24T11:29:53;10.15;;;1.92;;
49728;SDS011;35617;50.714;7.114;2022-11-24T11:32:58;10.07;;;1.70;;
49728;SDS011;35617;50.714;7.114;2022-11-24T11:35:28;9.32;;;1.77;;
49728;SDS011;35617;50.714;7.114;2022-11-24T11:37:58;12.00;;;1.60;;
49728;SDS011;35617;50.714;7.114;2022-11-24T11:40:27;11.07;;;1.92;;
49728;SDS011;35617;50.714;7.114;2022-11-24T11:43:16;12.98;;;2.10;;
49728;SDS011;35617;50.714;7.114;2022-11-24T11:46:24;11.05;;;2.28;;
49728;SDS011;35617;50.714;7.114;2022-11-24T11:48:45;8.60;;;1.63;;
49728;SDS011;35617;50.714;7.114;2022-11-24T11:54:05;12.50;;;2.00;;
49728;SDS011;35617;50.714;7.114;2022-11-24T11:56:44;10.13;;;1.85;;
49728;SDS011;35617;50.714;7.114;2022-11-24T12:22:31;11.25;;;2.00;;
49728;SDS011;35617;50.714;7.114;2022-11-24T12:41:53;11.77;;;2.42;;
49728;SDS011;35617;50.714;7.114;2022-11-24T12:44:30;9.15;;;1.70;;
49728;SDS011;35617;50.714;7.114;2022-11-24T12:52:33;12.65;;;2.15;;
49728;SDS011;35617;50.714;7.114;2022-11-24T12:55:01;7.78;;;1.90;;
49728;SDS011;35617;50.714;7.114;2022-11-24T12:57:29;7.70;;;2.30;;
49728;SDS011;35617;50.714;7.114;2022-11-24T13:00:15;8.90;;;2.05;;
49728;SDS011;35617;50.714;7.114;2022-11-24T13:03:19;11.77;;;2.13;;
49728;SDS011;35617;50.714;7.114;2022-11-24T13:05:56;11.27;;;1.88;;
49728;SDS011;35617;50.714;7.114;2022-11-24T13:08:37;9.63;;;2.10;;
49728;SDS011;35617;50.714;7.114;2022-11-24T13:11:23;9.55;;;2.20;;
49728;SDS011;35617;50.714;7.114;2022-11-24T13:14:04;13.05;;;2.00;;
49728;SDS011;35617;50.714;7.114;2022-11-24T13:16:46;12.45;;;2.42;;
49728;SDS011;35617;50.714;7.114;2022-11-24T13:19:24;10.45;;;2.30;;
49728;SDS011;35617;50.714;7.114;2022-11-24T13:24:35;12.93;;;2.08;;
49728;SDS011;35617;50.714;7.114;2022-11-24T13:29:38;9.57;;;2.05;;
49728;SDS011;35617;50.714;7.114;2022-11-24T13:37:16;10.98;;;2.33;;
49728;SDS011;35617;50.714;7.114;2022-11-24T13:40:36;7.88;;;1.65;;
49728;SDS011;35617;50.714;7.114;2022-11-24T13:53:33;10.90;;;1.77;;
49728;SDS011;35617;50.714;7.114;2022-11-24T13:56:05;7.93;;;1.98;;
49728;SDS011;35617;50.714;7.114;2022-11-24T13:58:36;7.97;;;1.75;;
49728;SDS011;35617;50.714;7.114;2022-11-24T14:01:12;9.93;;;2.58;;
49728;SDS011;35617;50.714;7.114;2022-11-24T14:03:51;8.52;;;2.20;;
49728;SDS011;35617;50.714;7.114;2022-11-24T14:06:39;11.05;;;2.13;;
49728;SDS011;35617;50.714;7.114;2022-11-24T14:12:04;9.32;;;1.88;;
49728;SDS011;35617;50.714;7.114;2022-11-24T14:14:50;11.32;;;2.10;;
49728;SDS011;35617;50.714;7.114;2022-11-24T14:17:23;11.02;;;2.05;;
49728;SDS011;35617;50.714;7.114;2022-11-24T14:19:55;7.82;;;1.85;;
49728;SDS011;35617;50.714;7.114;2022-11-24T14:27:55;8.15;;;1.75;;
49728;SDS011;35617;50.714;7.114;2022-11-24T14:30:22;9.23;;;1.90;;
49728;SDS011;35617;50.714;7.114;2022-11-24T14:32:59;10.27;;;1.90;;
49728;SDS011;35617;50.714;7.114;2022-11-24T14:35:32;10.90;;;2.00;;
49728;SDS011;35617;50.714;7.114;2022-11-24T14:38:03;8.57;;;2.00;;
49728;SDS011;35617;50.714;7.114;2022-11-24T14:48:36;11.07;;;2.20;;
49728;SDS011;35617;50.714;7.114;2022-11-24T14:53:35;10.80;;;2.20;;
49728;SDS011;35617;50.714;7.114;2022-11-24T14:56:08;9.77;;;2.67;;
49728;SDS011;35617;50.714;7.114;2022-11-24T14:58:53;12.93;;;2.75;;
49728;SDS011;35617;50.714;7.114;2022-11-24T15:04:11;10.23;;;2.95;;
49728;SDS011;35617;50.714;7.114;2022-11-24T15:06:44;9.88;;;2.15;;
49728;SDS011;35617;50.714;7.114;2022-11-24T15:09:19;10.55;;;2.88;;
49728;SDS011;35617;50.714;7.114;2022-11-24T15:12:02;10.00;;;2.88;;
49728;SDS011;35617;50.714;7.114;2022-11-24T15:17:16;12.35;;;2.47;;
49728;SDS011;35617;50.714;7.114;2022-11-24T15:19:46;9.52;;;2.00;;
49728;SDS011;35617;50.714;7.114;2022-11-24T15:22:36;10.73;;;2.50;;
49728;SDS011;35617;50.714;7.114;2022-11-24T15:25:02;12.13;;;2.85;;
49728;SDS011;35617;50.714;7.114;2022-11-24T15:27:48;15.30;;;3.22;;
49728;SDS011;35617;50.714;7.114;2022-11-24T15:30:15;11.18;;;2.47;;
49728;SDS011;35617;50.714;7.114;2022-11-24T15:32:47;10.65;;;1.85;;
49728;SDS011;35617;50.714;7.114;2022-11-24T15:35:16;10.90;;;2.90;;
49728;SDS011;35617;50.714;7.114;2022-11-24T15:37:42;9.43;;;2.08;;
49728;SDS011;35617;50.714;7.114;2022-11-24T15:40:09;14.65;;;2.70;;
49728;SDS011;35617;50.714;7.114;2022-11-24T15:42:35;10.48;;;2.15;;
49728;SDS011;35617;50.714;7.114;2022-11-24T15:45:01;14.45;;;2.38;;
49728;SDS011;35617;50.714;7.114;2022-11-24T15:47:26;7.82;;;2.03;;
49728;SDS011;35617;50.714;7.114;2022-11-24T15:49:52;9.45;;;2.10;;
49728;SDS011;35617;50.714;7.114;2022-11-24T15:52:17;11.52;;;2.28;;
49728;SDS011;35617;50.714;7.114;2022-11-24T15:54:50;13.07;;;2.55;;
49728;SDS011;35617;50.714;7.114;2022-11-24T15:57:17;12.68;;;3.10;;
49728;SDS011;35617;50.714;7.114;2022-11-24T15:59:43;14.82;;;3.83;;
49728;SDS011;35617;50.714;7.114;2022-11-24T16:02:09;11.40;;;2.60;;
49728;SDS011;35617;50.714;7.114;2022-11-24T16:04:34;10.20;;;2.22;;
49728;SDS011;35617;50.714;7.114;2022-11-24T16:07:00;10.20;;;2.75;;
49728;SDS011;35617;50.714;7.114;2022-11-24T16:09:27;12.48;;;2.83;;
49728;SDS011;35617;50.714;7.114;2022-11-24T16:11:53;10.82;;;2.95;;
49728;SDS011;35617;50.714;7.114;2022-11-24T16:14:18;18.98;;;4.22;;
49728;SDS011;35617;50.714;7.114;2022-11-24T16:16:44;13.40;;;3.10;;
49728;SDS011;35617;50.714;7.114;2022-11-24T16:19:10;13.88;;;3.00;;
49728;SDS011;35617;50.714;7.114;2022-11-24T16:21:36;7.97;;;2.50;;
49728;SDS011;35617;50.714;7.114;2022-11-24T16:24:02;15.83;;;4.20;;
49728;SDS011;35617;50.714;7.114;2022-11-24T16:26:27;10.18;;;2.90;;
49728;SDS011;35617;50.714;7.114;2022-11-24T16:28:53;12.43;;;3.20;;
49728;SDS011;35617;50.714;7.114;2022-11-24T16:31:19;13.10;;;2.70;;
49728;SDS011;35617;50.714;7.114;2022-11-24T16:33:44;10.20;;;2.40;;
49728;SDS011;35617;50.714;7.114;2022-11-24T16:36:10;13.47;;;2.90;;
49728;SDS011;35617;50.714;7.114;2022-11-24T16:38:37;13.33;;;3.10;;
49728;SDS011;35617;50.714;7.114;2022-11-24T16:41:13;11.03;;;3.10;;
49728;SDS011;35617;50.714;7.114;2022-11-24T16:43:44;9.60;;;2.50;;
49728;SDS011;35617;50.714;7.114;2022-11-24T16:48:43;15.73;;;3.60;;
49728;SDS011;35617;50.714;7.114;2022-11-24T16:51:11;11.23;;;3.40;;
49728;SDS011;35617;50.714;7.114;2022-11-24T16:53:37;12.13;;;3.87;;
49728;SDS011;35617;50.714;7.114;2022-11-24T17:16:07;11.73;;;4.30;;
49728;SDS011;35617;50.714;7.114;2022-11-24T17:18:35;11.93;;;4.07;;
49728;SDS011;35617;50.714;7.114;2022-11-24T17:21:02;15.10;;;4.43;;
49728;SDS011;35617;50.714;7.114;2022-11-24T17:23:29;19.17;;;5.03;;
49728;SDS011;35617;50.714;7.114;2022-11-24T17:25:59;12.27;;;3.87;;
49728;SDS011;35617;50.714;7.114;2022-11-24T17:28:26;12.57;;;4.80;;
49728;SDS011;35617;50.714;7.114;2022-11-24T17:30:52;15.80;;;4.70;;
49728;SDS011;35617;50.714;7.114;2022-11-24T17:33:17;13.77;;;4.40;;
49728;SDS011;35617;50.714;7.114;2022-11-24T17:35:43;15.30;;;4.93;;
